createdAt,value
2023-10-24T00:00:19.196Z,19.33
2023-10-24T00:02:49.013Z,17.42
2023-10-24T00:05:17.560Z,17.90
2023-10-24T00:07:48.207Z,16.00
2023-10-24T00:12:44.876Z,21.10
2023-10-24T00:15:13.356Z,17.55
2023-10-24T00:17:41.809Z,18.05
2023-10-24T00:20:12.932Z,18.02
2023-10-24T00:22:41.323Z,17.98
2023-10-24T00:25:10.681Z,15.68
2023-10-24T00:27:39.021Z,16.92
2023-10-24T00:30:09.331Z,17.35
2023-10-24T00:32:37.795Z,16.80
2023-10-24T00:35:07.164Z,16.65
2023-10-24T00:37:36.910Z,16.70
2023-10-24T00:40:06.456Z,16.63
2023-10-24T00:42:34.745Z,16.88
2023-10-24T00:45:04.986Z,17.50
2023-10-24T00:47:33.768Z,19.35
2023-10-24T00:50:02.453Z,20.48
2023-10-24T00:52:31.401Z,20.95
2023-10-24T00:55:01.334Z,21.25
2023-10-24T00:57:29.904Z,23.65
2023-10-24T00:59:58.320Z,22.55
2023-10-24T01:02:27.455Z,22.50
2023-10-24T01:04:58.982Z,21.98
2023-10-24T01:07:27.366Z,19.20
2023-10-24T01:09:55.688Z,19.90
2023-10-24T01:12:25.475Z,19.30
2023-10-24T01:14:54.069Z,21.63
2023-10-24T01:17:22.429Z,18.77
2023-10-24T01:19:50.830Z,18.50
2023-10-24T01:22:20.588Z,17.85
2023-10-24T01:24:49.512Z,20.30
2023-10-24T01:27:21.458Z,18.87
2023-10-24T01:29:49.853Z,19.00
2023-10-24T01:32:18.212Z,17.48
2023-10-24T01:34:47.269Z,16.00
2023-10-24T01:37:15.638Z,16.60
2023-10-24T01:39:45.404Z,16.58
2023-10-24T01:42:13.806Z,19.23
2023-10-24T01:44:42.378Z,21.38
2023-10-24T01:47:11.072Z,21.85
2023-10-24T01:49:39.374Z,23.05
2023-10-24T01:52:07.815Z,21.00
2023-10-24T01:54:36.291Z,21.52
2023-10-24T01:57:06.821Z,23.50
2023-10-24T01:59:36.025Z,25.33
2023-10-24T02:02:04.615Z,23.13
2023-10-24T02:04:33.127Z,24.95
2023-10-24T02:07:01.647Z,26.13
2023-10-24T02:09:31.413Z,24.33
2023-10-24T02:12:02.116Z,22.58
2023-10-24T02:17:00.437Z,26.07
2023-10-24T02:19:28.804Z,25.17
2023-10-24T02:21:57.202Z,24.88
2023-10-24T02:24:26.039Z,22.77
2023-10-24T02:26:54.380Z,21.92
2023-10-24T02:29:22.699Z,24.88
2023-10-24T02:31:52.454Z,26.10
2023-10-24T02:34:22.307Z,22.23
2023-10-24T02:36:50.749Z,22.70
2023-10-24T02:39:19.955Z,22.80
2023-10-24T02:41:48.343Z,22.85
2023-10-24T02:44:16.667Z,23.98
2023-10-24T02:46:45.595Z,25.90
2023-10-24T02:49:15.904Z,24.80
2023-10-24T02:51:44.410Z,25.25
2023-10-24T02:54:12.825Z,26.35
2023-10-24T02:56:43.035Z,26.15
2023-10-24T02:59:11.626Z,23.80
2023-10-24T03:01:40.033Z,24.75
2023-10-24T03:04:08.605Z,27.08
2023-10-24T03:06:38.334Z,25.23
2023-10-24T03:09:06.905Z,27.63
2023-10-24T03:11:35.327Z,28.95
2023-10-24T03:14:05.168Z,27.70
2023-10-24T03:16:36.045Z,24.88
2023-10-24T03:19:04.457Z,26.25
2023-10-24T03:21:32.882Z,28.33
2023-10-24T03:24:03.418Z,28.30
2023-10-24T03:29:00.140Z,28.42
2023-10-24T03:31:29.200Z,28.38
2023-10-24T03:33:57.586Z,29.30
2023-10-24T03:36:26.730Z,30.73
2023-10-24T03:38:55.124Z,29.52
2023-10-24T03:41:24.924Z,28.65
2023-10-24T03:43:53.317Z,31.05
2023-10-24T03:46:21.775Z,33.50
2023-10-24T03:48:50.070Z,33.05
2023-10-24T03:51:18.467Z,32.88
2023-10-24T03:53:46.737Z,33.65
2023-10-24T03:56:15.269Z,33.25
2023-10-24T03:58:44.935Z,31.15
2023-10-24T04:01:13.633Z,32.17
2023-10-24T04:03:42.084Z,32.53
2023-10-24T04:06:14.105Z,29.67
2023-10-24T04:08:42.528Z,30.40
2023-10-24T04:11:15.663Z,29.92
2023-10-24T04:13:45.720Z,31.63
2023-10-24T04:16:14.943Z,29.50
2023-10-24T04:18:43.407Z,28.65
2023-10-24T04:21:11.721Z,26.60
2023-10-24T04:23:40.015Z,26.85
2023-10-24T04:26:08.369Z,25.92
2023-10-24T04:28:36.916Z,25.65
2023-10-24T04:31:06.843Z,27.63
2023-10-24T04:33:35.330Z,26.20
2023-10-24T04:36:04.977Z,28.90
2023-10-24T04:38:33.355Z,26.67
2023-10-24T04:41:01.722Z,30.38
2023-10-24T04:43:30.198Z,28.98
2023-10-24T04:45:58.677Z,30.25
2023-10-24T04:48:28.582Z,26.40
2023-10-24T04:50:56.881Z,25.33
2023-10-24T04:53:26.027Z,27.48
2023-10-24T04:55:54.351Z,27.60
2023-10-24T04:58:22.738Z,27.75
2023-10-24T05:00:51.067Z,27.05
2023-10-24T05:03:19.438Z,26.73
2023-10-24T05:05:49.228Z,26.10
2023-10-24T05:08:17.582Z,27.23
2023-10-24T05:10:45.998Z,29.30
2023-10-24T05:13:14.299Z,29.58
2023-10-24T05:15:42.919Z,30.45
2023-10-24T05:18:12.760Z,30.00
2023-10-24T05:20:41.278Z,29.80
2023-10-24T05:23:10.963Z,32.65
2023-10-24T05:25:40.876Z,29.08
2023-10-24T05:28:10.558Z,28.98
2023-10-24T05:30:40.464Z,29.27
2023-10-24T05:33:09.278Z,31.33
2023-10-24T05:35:37.672Z,29.92
2023-10-24T05:38:06.052Z,31.98
2023-10-24T05:40:35.918Z,31.85
2023-10-24T05:43:04.280Z,31.17
2023-10-24T05:45:32.643Z,30.92
2023-10-24T05:48:01.095Z,29.55
2023-10-24T05:50:31.170Z,34.70
2023-10-24T05:52:59.632Z,30.02
2023-10-24T05:55:28.453Z,30.65
2023-10-24T05:58:00.448Z,31.38
2023-10-24T06:00:28.818Z,30.20
2023-10-24T06:02:57.293Z,34.15
2023-10-24T06:05:25.691Z,29.70
2023-10-24T06:07:54.112Z,33.28
2023-10-24T06:10:22.626Z,32.75
2023-10-24T06:12:51.450Z,32.65
2023-10-24T06:15:21.534Z,33.42
2023-10-24T06:17:49.952Z,33.35
2023-10-24T06:20:18.485Z,39.80
2023-10-24T06:22:46.978Z,34.97
2023-10-24T06:25:15.389Z,31.48
2023-10-24T06:27:43.712Z,33.22
2023-10-24T06:30:13.618Z,33.70
2023-10-24T06:32:44.503Z,34.90
2023-10-24T06:35:16.392Z,31.50
2023-10-24T06:37:44.836Z,34.50
2023-10-24T06:40:13.799Z,29.40
2023-10-24T06:42:42.206Z,30.58
2023-10-24T06:45:12.070Z,31.90
2023-10-24T06:47:43.083Z,32.38
2023-10-24T06:50:12.038Z,31.52
2023-10-24T06:52:43.319Z,29.77
2023-10-24T06:55:12.082Z,32.17
2023-10-24T06:57:40.427Z,30.92
2023-10-24T07:00:10.994Z,30.85
2023-10-24T07:02:40.589Z,31.17
2023-10-24T07:05:10.592Z,31.08
2023-10-24T07:07:40.805Z,32.97
2023-10-24T07:10:10.641Z,33.90
2023-10-24T07:12:39.152Z,30.00
2023-10-24T07:15:09.590Z,29.80
2023-10-24T07:17:38.289Z,30.58
2023-10-24T07:20:12.863Z,32.65
2023-10-24T07:22:41.457Z,30.58
2023-10-24T07:25:10.944Z,29.77
2023-10-24T07:27:39.329Z,29.02
2023-10-24T07:30:10.354Z,28.35
2023-10-24T07:32:38.837Z,29.40
2023-10-24T07:35:09.308Z,29.42
2023-10-24T07:37:39.102Z,29.73
2023-10-24T07:40:09.444Z,26.30
2023-10-24T07:42:37.834Z,25.38
2023-10-24T07:45:07.631Z,29.52
2023-10-24T07:47:36.133Z,28.10
2023-10-24T07:50:06.493Z,26.83
2023-10-24T07:52:34.869Z,29.55
2023-10-24T07:55:05.303Z,30.83
2023-10-24T07:57:33.942Z,27.00
2023-10-24T08:00:02.369Z,27.40
2023-10-24T08:02:40.852Z,28.05
2023-10-24T08:05:10.798Z,27.33
2023-10-24T08:07:39.177Z,29.38
2023-10-24T08:10:09.832Z,26.65
2023-10-24T08:15:07.625Z,26.85
2023-10-24T08:17:36.057Z,26.40
2023-10-24T08:20:05.825Z,25.88
2023-10-24T08:22:34.382Z,25.52
2023-10-24T08:25:03.273Z,23.42
2023-10-24T08:27:33.138Z,21.58
2023-10-24T08:30:02.032Z,22.13
2023-10-24T08:32:30.816Z,22.35
2023-10-24T08:34:59.294Z,19.40
2023-10-24T08:37:27.988Z,20.40
2023-10-24T08:39:56.843Z,19.35
2023-10-24T08:42:27.133Z,19.42
2023-10-24T08:44:56.956Z,19.02
2023-10-24T08:47:25.928Z,19.95
2023-10-24T08:49:54.635Z,20.70
2023-10-24T08:52:30.724Z,20.98
2023-10-24T08:55:02.193Z,20.98
2023-10-24T09:00:02.998Z,21.60
2023-10-24T09:02:31.961Z,21.15
2023-10-24T09:05:02.013Z,18.42
2023-10-24T09:07:30.669Z,19.20
2023-10-24T09:09:59.153Z,20.88
2023-10-24T09:12:31.934Z,20.95
2023-10-24T09:15:02.005Z,20.00
2023-10-24T09:17:33.682Z,20.80
2023-10-24T09:20:06.512Z,21.73
2023-10-24T09:22:36.414Z,19.77
2023-10-24T09:25:05.951Z,20.60
2023-10-24T09:27:34.401Z,24.80
2023-10-24T09:30:13.526Z,23.38
2023-10-24T09:32:42.929Z,21.60
2023-10-24T09:35:12.062Z,20.73
2023-10-24T09:37:47.128Z,21.70
2023-10-24T09:40:15.652Z,23.92
2023-10-24T09:42:45.474Z,23.48
2023-10-24T09:45:16.863Z,20.77
2023-10-24T09:47:47.048Z,20.98
2023-10-24T09:50:16.925Z,20.80
2023-10-24T09:52:46.396Z,22.25
2023-10-24T09:55:17.185Z,21.10
2023-10-24T10:00:17.740Z,20.17
2023-10-24T10:02:47.570Z,21.85
2023-10-24T10:05:17.107Z,21.45
2023-10-24T10:07:51.390Z,24.17
2023-10-24T10:10:22.496Z,22.73
2023-10-24T10:12:51.602Z,22.45
2023-10-24T10:15:48.532Z,23.33
2023-10-24T10:18:35.880Z,20.80
2023-10-24T10:21:14.196Z,21.92
2023-10-24T10:24:10.367Z,21.60
2023-10-24T10:27:01.238Z,20.83
2023-10-24T10:32:38.703Z,21.70
2023-10-24T10:35:21.166Z,19.25
2023-10-24T10:38:04.675Z,16.13
2023-10-24T10:40:33.140Z,16.23
2023-10-24T10:43:01.535Z,12.88
2023-10-24T10:45:30.739Z,15.77
2023-10-24T10:48:02.469Z,14.82
2023-10-24T10:50:31.823Z,13.85
2023-10-24T10:53:16.828Z,12.95
2023-10-24T10:56:05.558Z,13.13
2023-10-24T10:58:53.462Z,12.60
2023-10-24T11:01:35.728Z,13.45
2023-10-24T11:04:15.708Z,11.75
2023-10-24T11:06:52.289Z,14.30
2023-10-24T11:09:22.527Z,12.75
2023-10-24T11:12:28.125Z,10.35
2023-10-24T11:15:25.653Z,10.20
2023-10-24T11:17:54.185Z,10.25
2023-10-24T11:20:24.754Z,10.27
2023-10-24T11:22:53.576Z,8.02
2023-10-24T11:25:22.070Z,8.73
2023-10-24T11:27:52.298Z,7.95
2023-10-24T11:30:21.140Z,8.02
2023-10-24T11:32:49.471Z,8.68
2023-10-24T11:35:18.338Z,7.80
2023-10-24T11:37:48.861Z,9.32
2023-10-24T11:40:17.498Z,8.65
2023-10-24T11:42:45.885Z,7.43
2023-10-24T11:45:14.236Z,7.82
2023-10-24T11:47:42.758Z,5.43
2023-10-24T11:50:14.878Z,7.50
2023-10-24T11:52:43.402Z,6.40
2023-10-24T11:55:13.155Z,7.40
2023-10-24T11:57:42.739Z,5.90
2023-10-24T12:00:18.799Z,9.88
2023-10-24T12:02:47.906Z,5.78
2023-10-24T12:05:16.776Z,5.28
2023-10-24T12:07:45.167Z,4.90
2023-10-24T12:10:16.018Z,5.03
2023-10-24T12:12:48.001Z,7.30
2023-10-24T12:15:17.940Z,5.60
2023-10-24T12:17:48.807Z,7.15
2023-10-24T12:22:48.265Z,4.63
2023-10-24T12:25:19.648Z,6.75
2023-10-24T12:27:48.001Z,7.00
2023-10-24T12:30:16.690Z,5.95
2023-10-24T12:32:45.177Z,5.28
2023-10-24T12:35:13.627Z,5.57
2023-10-24T12:37:42.032Z,5.05
2023-10-24T12:40:11.506Z,5.28
2023-10-24T12:42:41.204Z,5.32
2023-10-24T12:45:10.652Z,6.10
2023-10-24T12:47:39.144Z,6.90
2023-10-24T12:50:09.129Z,4.97
2023-10-24T12:52:37.683Z,5.45
2023-10-24T12:55:06.628Z,5.38
2023-10-24T12:57:34.938Z,5.47
2023-10-24T13:00:05.486Z,6.90
2023-10-24T13:02:33.999Z,5.95
2023-10-24T13:05:02.368Z,7.30
2023-10-24T13:07:30.783Z,8.52
2023-10-24T13:09:59.219Z,5.07
2023-10-24T13:12:27.661Z,5.32
2023-10-24T13:14:55.982Z,5.60
2023-10-24T13:17:25.782Z,6.95
2023-10-24T13:19:54.227Z,5.70
2023-10-24T13:22:22.532Z,7.57
2023-10-24T13:24:51.199Z,6.22
2023-10-24T13:27:20.028Z,5.60
2023-10-24T13:29:48.396Z,5.40
2023-10-24T13:32:16.817Z,7.05
2023-10-24T13:37:18.133Z,8.40
2023-10-24T13:39:46.521Z,6.35
2023-10-24T13:42:15.053Z,6.97
2023-10-24T13:44:43.405Z,8.15
2023-10-24T13:47:11.943Z,7.25
2023-10-24T13:49:40.519Z,9.25
2023-10-24T13:52:10.854Z,7.65
2023-10-24T13:54:39.205Z,9.43
2023-10-24T13:57:07.747Z,9.10
2023-10-24T13:59:36.085Z,11.15
2023-10-24T14:02:04.611Z,10.50
2023-10-24T14:04:33.044Z,8.68
2023-10-24T14:07:01.825Z,8.70
2023-10-24T14:09:31.662Z,10.13
2023-10-24T14:12:00.044Z,9.30
2023-10-24T14:14:30.053Z,9.57
2023-10-24T14:16:58.717Z,8.80
2023-10-24T14:19:27.382Z,8.30
2023-10-24T14:21:58.428Z,8.50
2023-10-24T14:24:26.781Z,7.63
2023-10-24T14:26:56.540Z,6.25
2023-10-24T14:29:24.935Z,6.00
2023-10-24T14:31:53.393Z,6.47
2023-10-24T14:34:21.861Z,8.02
2023-10-24T14:36:50.329Z,8.82
2023-10-24T14:39:18.811Z,8.30
2023-10-24T14:41:47.231Z,6.75
2023-10-24T14:44:16.948Z,4.53
2023-10-24T14:46:46.119Z,4.97
2023-10-24T14:49:16.940Z,3.42
2023-10-24T14:51:45.501Z,7.78
2023-10-24T14:54:13.800Z,6.55
2023-10-24T14:56:43.475Z,9.93
2023-10-24T14:59:11.870Z,4.60
2023-10-24T15:01:41.677Z,5.28
2023-10-24T15:04:10.392Z,9.97
2023-10-24T15:06:38.680Z,7.20
2023-10-24T15:09:07.249Z,9.90
2023-10-24T15:11:35.575Z,5.95
2023-10-24T15:14:04.009Z,5.28
2023-10-24T15:16:33.161Z,8.25
2023-10-24T15:19:02.883Z,5.50
2023-10-24T15:21:32.601Z,5.63
2023-10-24T15:24:00.974Z,5.33
2023-10-24T15:26:29.780Z,4.85
2023-10-24T15:28:58.181Z,5.30
2023-10-24T15:31:26.634Z,5.22
2023-10-24T15:33:55.043Z,7.40
2023-10-24T15:36:35.012Z,5.53
2023-10-24T15:39:07.375Z,4.85
2023-10-24T15:41:36.155Z,5.30
2023-10-24T15:44:04.599Z,4.88
2023-10-24T15:46:34.686Z,6.43
2023-10-24T15:49:03.039Z,6.28
2023-10-24T15:51:32.752Z,5.93
2023-10-24T15:54:01.073Z,7.90
2023-10-24T15:56:29.658Z,6.00
2023-10-24T15:58:58.044Z,5.55
2023-10-24T16:01:28.093Z,6.90
2023-10-24T16:03:56.562Z,8.32
2023-10-24T16:06:24.954Z,8.85
2023-10-24T16:08:54.815Z,7.82
2023-10-24T16:11:23.192Z,10.27
2023-10-24T16:13:53.207Z,8.80
2023-10-24T16:16:22.062Z,5.78
2023-10-24T16:18:50.481Z,7.57
2023-10-24T16:21:18.834Z,7.40
2023-10-24T16:23:47.345Z,6.43
2023-10-24T16:26:17.106Z,8.57
2023-10-24T16:28:45.580Z,7.97
2023-10-24T16:31:14.442Z,6.03
2023-10-24T16:33:43.255Z,7.32
2023-10-24T16:36:11.734Z,5.80
2023-10-24T16:38:40.158Z,6.97
2023-10-24T16:41:08.629Z,7.07
2023-10-24T16:43:38.398Z,7.65
2023-10-24T16:46:06.915Z,14.10
2023-10-24T16:48:35.288Z,10.85
2023-10-24T16:51:04.386Z,8.68
2023-10-24T16:53:33.134Z,12.02
2023-10-24T16:56:01.513Z,11.43
2023-10-24T16:58:29.980Z,9.00
2023-10-24T17:00:59.734Z,10.60
2023-10-24T17:03:28.293Z,8.27
2023-10-24T17:05:57.347Z,7.70
2023-10-24T17:08:25.747Z,8.35
2023-10-24T17:10:58.435Z,7.72
2023-10-24T17:13:27.598Z,8.40
2023-10-24T17:15:57.237Z,8.23
2023-10-24T17:18:27.871Z,10.73
2023-10-24T17:20:56.295Z,8.52
2023-10-24T17:23:28.952Z,9.13
2023-10-24T17:25:58.293Z,6.65
2023-10-24T17:28:27.366Z,11.48
2023-10-24T17:30:55.766Z,5.70
2023-10-24T17:33:24.202Z,8.00
2023-10-24T17:35:54.098Z,6.22
2023-10-24T17:38:22.464Z,8.75
2023-10-24T17:40:52.213Z,7.78
2023-10-24T17:43:20.738Z,10.10
2023-10-24T17:45:49.088Z,9.05
2023-10-24T17:48:17.519Z,9.57
2023-10-24T17:50:46.118Z,7.97
2023-10-24T17:53:15.880Z,9.55
2023-10-24T17:55:44.300Z,12.80
2023-10-24T17:58:12.664Z,7.35
2023-10-24T18:00:41.012Z,12.45
2023-10-24T18:03:09.474Z,6.22
2023-10-24T18:05:39.501Z,10.43
2023-10-24T18:08:08.178Z,10.85
2023-10-24T18:10:37.929Z,9.05
2023-10-24T18:13:06.334Z,9.90
2023-10-24T18:15:35.542Z,12.23
2023-10-24T18:18:06.092Z,13.65
2023-10-24T18:20:35.132Z,9.95
2023-10-24T18:23:04.636Z,9.60
2023-10-24T18:25:33.195Z,8.02
2023-10-24T18:28:03.020Z,11.35
2023-10-24T18:30:32.509Z,8.80
2023-10-24T18:33:00.895Z,9.02
2023-10-24T18:35:29.413Z,8.30
2023-10-24T18:37:57.889Z,11.77
2023-10-24T18:40:26.311Z,6.55
2023-10-24T18:42:57.197Z,9.02
2023-10-24T18:45:27.511Z,6.55
2023-10-24T18:47:56.016Z,6.60
2023-10-24T18:50:26.381Z,11.32
2023-10-24T18:52:57.590Z,10.75
2023-10-24T18:55:26.081Z,9.13
2023-10-24T18:57:54.864Z,9.45
2023-10-24T19:00:23.779Z,10.00
2023-10-24T19:02:55.685Z,6.18
2023-10-24T19:05:24.751Z,4.95
2023-10-24T19:07:53.506Z,10.20
2023-10-24T19:10:22.959Z,10.00
2023-10-24T19:12:52.159Z,8.80
2023-10-24T19:15:21.716Z,9.88
2023-10-24T19:17:51.350Z,7.25
2023-10-24T19:20:21.629Z,13.32
2023-10-24T19:22:50.871Z,6.85
2023-10-24T19:25:20.293Z,9.75
2023-10-24T19:27:49.702Z,10.45
2023-10-24T19:30:19.479Z,8.32
2023-10-24T19:32:48.746Z,8.77
2023-10-24T19:35:18.037Z,11.48
2023-10-24T19:37:48.843Z,11.75
2023-10-24T19:42:50.314Z,10.98
2023-10-24T19:45:19.994Z,9.27
2023-10-24T19:47:51.320Z,11.25
2023-10-24T19:50:20.536Z,10.15
2023-10-24T19:52:51.103Z,11.23
2023-10-24T19:57:54.332Z,6.53
2023-10-24T20:00:24.021Z,9.00
2023-10-24T20:02:53.228Z,6.60
2023-10-24T20:05:23.107Z,12.95
2023-10-24T20:07:57.199Z,8.20
2023-10-24T20:11:41.518Z,7.13
2023-10-24T20:13:18.305Z,8.13
2023-10-24T20:15:48.310Z,7.70
2023-10-24T20:18:17.520Z,5.93
2023-10-24T20:20:48.513Z,7.18
2023-10-24T20:23:20.181Z,6.28
2023-10-24T20:25:49.431Z,4.30
2023-10-24T20:28:17.776Z,5.35
2023-10-24T20:30:46.294Z,4.22
2023-10-24T20:33:14.868Z,5.25
2023-10-24T20:35:43.225Z,5.97
2023-10-24T20:38:11.583Z,5.82
2023-10-24T20:40:41.299Z,4.75
2023-10-24T20:43:09.756Z,3.30
2023-10-24T20:45:39.542Z,5.07
2023-10-24T20:48:08.448Z,8.13
2023-10-24T20:50:36.972Z,5.28
2023-10-24T20:53:05.248Z,3.88
2023-10-24T20:55:33.705Z,6.22
2023-10-24T20:58:03.588Z,5.05
2023-10-24T21:00:32.761Z,6.45
2023-10-24T21:03:01.274Z,6.00
2023-10-24T21:05:29.675Z,3.88
2023-10-24T21:07:58.012Z,4.60
2023-10-24T21:10:26.453Z,6.35
2023-10-24T21:12:54.875Z,7.22
2023-10-24T21:15:28.669Z,7.90
2023-10-24T21:17:57.452Z,8.02
2023-10-24T21:20:25.903Z,9.10
2023-10-24T21:22:54.235Z,10.38
2023-10-24T21:25:22.988Z,7.28
2023-10-24T21:27:51.371Z,10.70
2023-10-24T21:30:19.883Z,7.80
2023-10-24T21:32:49.696Z,8.93
2023-10-24T21:35:18.964Z,10.40
2023-10-24T21:37:47.342Z,10.82
2023-10-24T21:40:15.929Z,8.18
2023-10-24T21:42:44.287Z,10.27
2023-10-24T21:45:12.844Z,10.10
2023-10-24T21:47:41.263Z,8.57
2023-10-24T21:50:11.655Z,9.18
2023-10-24T21:52:39.978Z,8.95
2023-10-24T21:55:09.433Z,7.55
2023-10-24T21:57:37.839Z,13.00
2023-10-24T22:00:16.484Z,12.50
2023-10-24T22:02:44.884Z,9.32
2023-10-24T22:05:16.439Z,8.82
2023-10-24T22:07:44.822Z,8.65
2023-10-24T22:10:13.447Z,6.57
2023-10-24T22:12:42.021Z,10.10
2023-10-24T22:15:11.479Z,9.70
2023-10-24T22:17:39.933Z,7.55
2023-10-24T22:20:09.784Z,14.07
2023-10-24T22:22:39.485Z,6.33
2023-10-24T22:25:08.970Z,10.30
2023-10-24T22:27:38.397Z,7.93
2023-10-24T22:30:08.627Z,9.25
2023-10-24T22:32:37.179Z,9.43
2023-10-24T22:35:07.176Z,12.10
2023-10-24T22:37:35.593Z,9.93
2023-10-24T22:40:06.540Z,8.27
2023-10-24T22:42:34.962Z,8.40
2023-10-24T22:45:03.607Z,11.25
2023-10-24T22:47:31.963Z,6.80
2023-10-24T22:50:00.253Z,11.00
2023-10-24T22:52:29.207Z,11.57
2023-10-24T22:54:57.615Z,11.50
2023-10-24T22:57:27.566Z,13.18
2023-10-24T22:59:56.185Z,11.45
2023-10-24T23:02:24.768Z,8.02
2023-10-24T23:04:53.140Z,13.60
2023-10-24T23:07:21.474Z,7.35
2023-10-24T23:09:51.562Z,8.77
2023-10-24T23:12:20.114Z,9.30
2023-10-24T23:14:49.979Z,13.43
2023-10-24T23:17:18.463Z,7.50
2023-10-24T23:19:46.888Z,9.55
2023-10-24T23:22:15.222Z,8.60
2023-10-24T23:24:43.647Z,12.10
2023-10-24T23:27:13.119Z,11.73
2023-10-24T23:29:41.664Z,14.00
2023-10-24T23:32:11.521Z,11.73
2023-10-24T23:34:39.950Z,12.97
2023-10-24T23:37:08.310Z,10.40
2023-10-24T23:39:36.720Z,15.63
2023-10-24T23:42:05.936Z,9.63
2023-10-24T23:44:34.239Z,10.88
2023-10-24T23:47:02.666Z,11.63
2023-10-24T23:49:32.357Z,15.40
2023-10-24T23:52:00.715Z,14.48
2023-10-24T23:54:29.133Z,13.98
2023-10-24T23:56:57.418Z,16.23
2023-10-24T23:59:25.757Z,12.52
